Time;durP1;ratioP1;P1;durP2;ratioP2;P2;SDS_P1;SDS_P2;PMS_P1;PMS_P2;Temp;Humidity;BMP_temperature;BMP_pressure;BME280_temperature;BME280_humidity;BME280_pressure;Samples;Min_cycle;Max_cycle;Signal;HPM_P1;HPM_P2
2022/12/13 00:00:17;;;;;;;14.50;10.30;;;;;;;-145.23;100.00;58621.06;4998718;28;20318;-53
2022/12/13 00:02:44;;;;;;;14.13;9.90;;;;;;;-145.23;100.00;58621.06;5007168;28;20237;-54
2022/12/13 00:05:11;;;;;;;12.67;10.90;;;;;;;-145.23;100.00;58621.06;5004636;28;20323;-55
2022/12/13 00:07:37;;;;;;;13.73;10.33;;;;;;;-145.23;100.00;58621.06;5002109;28;20339;-53
2022/12/13 00:10:06;;;;;;;12.10;10.27;;;;;;;-145.23;100.00;58621.06;5006719;28;20232;-53
2022/12/13 00:12:33;;;;;;;13.60;9.93;;;;;;;-145.23;100.00;58621.06;5007856;28;20241;-54
2022/12/13 00:15:00;;;;;;;15.97;10.87;;;;;;;-145.23;100.00;58621.06;5009067;28;20235;-54
2022/12/13 00:17:26;;;;;;;18.10;11.67;;;;;;;-145.23;100.00;58621.06;5007346;28;20240;-54
2022/12/13 00:19:53;;;;;;;18.13;11.37;;;;;;;-145.23;100.00;58621.06;5006973;28;20242;-54
2022/12/13 00:22:20;;;;;;;12.30;9.90;;;;;;;-145.23;100.00;58621.06;5009001;28;20460;-54
2022/12/13 00:24:46;;;;;;;13.23;9.30;;;;;;;-145.23;100.00;58621.06;5007448;28;20232;-54
2022/12/13 00:27:14;;;;;;;13.90;9.07;;;;;;;-145.23;100.00;58621.06;5007685;28;20246;-53
2022/12/13 00:29:41;;;;;;;14.50;10.40;;;;;;;-145.23;100.00;58621.06;5000750;28;20238;-52
2022/12/13 00:32:08;;;;;;;13.43;11.17;;;;;;;-145.23;100.00;58621.06;5006367;28;20327;-53
2022/12/13 00:34:34;;;;;;;14.53;10.40;;;;;;;-145.23;100.00;58621.06;5004856;28;20843;-53
2022/12/13 00:37:01;;;;;;;14.87;10.93;;;;;;;-145.23;100.00;58621.06;5007132;28;21079;-52
2022/12/13 00:39:28;;;;;;;11.97;9.07;;;;;;;-145.23;100.00;58621.06;5009839;28;20330;-54
2022/12/13 00:41:54;;;;;;;16.03;10.30;;;;;;;-145.23;100.00;58621.06;5016315;28;20315;-53
2022/12/13 00:44:23;;;;;;;12.90;9.80;;;;;;;-145.23;100.00;58621.06;5006541;28;20761;-54
2022/12/13 00:46:50;;;;;;;14.60;9.97;;;;;;;-145.23;100.00;58621.06;5029933;28;20322;-54
2022/12/13 00:49:17;;;;;;;12.03;8.83;;;;;;;-145.23;100.00;58621.06;5010762;28;20246;-54
2022/12/13 00:51:44;;;;;;;13.43;8.77;;;;;;;-145.23;100.00;58621.06;5006230;28;20725;-53
2022/12/13 00:54:11;;;;;;;12.53;9.50;;;;;;;-145.23;100.00;58621.06;5005494;28;20255;-53
2022/12/13 00:56:37;;;;;;;16.03;10.57;;;;;;;-145.23;100.00;58621.06;5006849;28;20236;-54
2022/12/13 00:59:04;;;;;;;12.83;9.53;;;;;;;-145.23;100.00;58621.06;5008156;28;20339;-53
2022/12/13 01:01:35;;;;;;;13.20;8.67;;;;;;;-145.23;100.00;58621.06;5007810;28;20246;-54
2022/12/13 01:04:03;;;;;;;15.97;10.00;;;;;;;-145.23;100.00;58621.06;5007118;28;20349;-53
2022/12/13 01:06:32;;;;;;;13.30;9.13;;;;;;;-145.23;100.00;58621.06;5007005;28;20236;-54
2022/12/13 01:08:59;;;;;;;13.27;9.27;;;;;;;-145.23;100.00;58621.06;5008113;28;20235;-53
2022/12/13 01:11:26;;;;;;;15.63;9.90;;;;;;;-145.23;100.00;58621.06;5005975;28;20240;-54
2022/12/13 01:13:53;;;;;;;11.83;9.13;;;;;;;-145.23;100.00;58621.06;5010443;28;20315;-54
2022/12/13 01:16:19;;;;;;;11.90;8.13;;;;;;;-145.23;100.00;58621.06;5014874;28;20318;-53
2022/12/13 01:18:47;;;;;;;11.57;9.57;;;;;;;-145.23;100.00;58621.06;5007534;28;20323;-53
2022/12/13 01:21:16;;;;;;;12.23;9.37;;;;;;;-145.23;100.00;58621.06;5006226;28;20744;-54
2022/12/13 01:23:43;;;;;;;13.93;9.50;;;;;;;-145.23;100.00;58621.06;4998932;28;20244;-53
2022/12/13 01:26:13;;;;;;;15.60;10.50;;;;;;;-145.23;100.00;58621.06;5002802;28;20316;-54
2022/12/13 01:28:40;;;;;;;14.50;10.83;;;;;;;-145.23;100.00;58621.06;5001571;28;20312;-54
2022/12/13 01:31:08;;;;;;;18.27;11.60;;;;;;;-145.23;100.00;58621.06;5005795;28;20246;-54
2022/12/13 01:33:36;;;;;;;14.77;10.43;;;;;;;-145.23;100.00;58621.06;5013116;28;20319;-54
2022/12/13 01:36:06;;;;;;;13.23;9.93;;;;;;;-145.23;100.00;58621.06;5006535;28;20235;-55
2022/12/13 01:38:33;;;;;;;17.40;10.27;;;;;;;-145.23;100.00;58621.06;5012828;28;20232;-52
2022/12/13 01:41:00;;;;;;;18.40;11.73;;;;;;;-145.23;100.00;58621.06;5010270;28;20254;-53
2022/12/13 01:43:29;;;;;;;15.30;10.80;;;;;;;-145.23;100.00;58621.06;5010660;28;20247;-53
2022/12/13 01:45:56;;;;;;;15.13;11.93;;;;;;;-145.23;100.00;58621.06;4996773;28;20695;-53
2022/12/13 01:48:26;;;;;;;15.40;10.67;;;;;;;-145.23;100.00;58621.06;5015816;28;21024;-54
2022/12/13 01:50:54;;;;;;;16.80;10.03;;;;;;;-145.23;100.00;58621.06;5017968;28;20242;-53
2022/12/13 01:53:26;;;;;;;16.73;10.50;;;;;;;-145.23;100.00;58621.06;5004239;28;20240;-53
2022/12/13 01:55:54;;;;;;;13.83;10.23;;;;;;;-145.23;100.00;58621.06;5002291;28;20240;-54
2022/12/13 01:58:22;;;;;;;16.03;9.90;;;;;;;-145.23;100.00;58621.06;4996257;28;20269;-53
2022/12/13 02:00:49;;;;;;;14.10;10.60;;;;;;;-145.23;100.00;58621.06;5015195;28;20247;-53
2022/12/13 02:03:17;;;;;;;14.07;10.37;;;;;;;-145.23;100.00;58621.06;5007810;28;20255;-53
2022/12/13 02:05:46;;;;;;;18.40;11.77;;;;;;;-145.23;100.00;58621.06;5001655;28;20315;-53
2022/12/13 02:08:16;;;;;;;16.23;11.07;;;;;;;-145.23;100.00;58621.06;5003321;28;20228;-53
2022/12/13 02:10:44;;;;;;;14.87;10.40;;;;;;;-145.23;100.00;58621.06;5002951;28;20235;-53
2022/12/13 02:13:11;;;;;;;16.27;10.87;;;;;;;-145.23;100.00;58621.06;4999974;28;20255;-53
2022/12/13 02:15:44;;;;;;;17.30;10.10;;;;;;;-145.23;100.00;58621.06;5007233;28;20246;-53
2022/12/13 02:18:21;;;;;;;14.90;10.57;;;;;;;-145.23;100.00;58621.06;5019271;28;20236;-54
2022/12/13 02:21:10;;;;;;;16.80;11.33;;;;;;;-145.23;100.00;58621.06;5016410;28;20241;-53
2022/12/13 02:24:09;;;;;;;17.70;12.40;;;;;;;-145.23;100.00;58621.06;5003824;28;20232;-54
2022/12/13 02:26:51;;;;;;;20.43;11.17;;;;;;;-145.23;100.00;58621.06;4974997;28;20227;-53
2022/12/13 02:29:40;;;;;;;14.57;10.20;;;;;;;-145.23;100.00;58621.06;4990369;28;20251;-53
2022/12/13 02:32:15;;;;;;;19.43;11.97;;;;;;;-145.23;100.00;58621.06;5001115;28;20232;-54
2022/12/13 02:34:46;;;;;;;17.23;12.70;;;;;;;-145.23;100.00;58621.06;4994744;28;20314;-54
2022/12/13 02:37:18;;;;;;;17.20;11.57;;;;;;;-145.23;100.00;58621.06;4991724;28;20289;-53
2022/12/13 02:39:51;;;;;;;16.87;11.47;;;;;;;-145.23;100.00;58621.06;5009888;28;20269;-53
2022/12/13 02:42:21;;;;;;;13.33;10.23;;;;;;;-145.23;100.00;58621.06;4990392;28;20232;-54
2022/12/13 02:44:51;;;;;;;16.37;11.27;;;;;;;-145.23;100.00;58621.06;4993648;28;20255;-53
2022/12/13 02:47:22;;;;;;;17.63;11.50;;;;;;;-145.23;100.00;58621.06;5005791;28;20328;-53
2022/12/13 02:49:52;;;;;;;16.17;11.43;;;;;;;-145.23;100.00;58621.06;5001910;28;20257;-53
2022/12/13 02:52:21;;;;;;;19.73;12.17;;;;;;;-145.23;100.00;58621.06;5000775;28;20354;-53
2022/12/13 02:54:49;;;;;;;15.73;11.77;;;;;;;-145.23;100.00;58621.06;5003027;28;20228;-53
2022/12/13 02:57:32;;;;;;;16.93;11.87;;;;;;;-145.23;100.00;58621.06;4999839;28;20234;-53
2022/12/13 03:00:02;;;;;;;19.97;12.30;;;;;;;-145.23;100.00;58621.06;5014485;28;20739;-59
2022/12/13 03:02:35;;;;;;;17.63;12.47;;;;;;;-145.23;100.00;58621.06;5020758;28;20245;-54
2022/12/13 03:08:01;;;;;;;19.63;12.27;;;;;;;-145.23;100.00;58621.06;5001010;28;20610;-53
2022/12/13 03:10:33;;;;;;;19.27;12.20;;;;;;;-145.23;100.00;58621.06;5005760;28;20230;-52
2022/12/13 03:15:51;;;;;;;14.57;10.60;;;;;;;-145.23;100.00;58621.06;5002132;28;20244;-54
2022/12/13 03:18:21;;;;;;;16.63;11.43;;;;;;;-145.23;100.00;58621.06;5014606;28;20748;-54
2022/12/13 03:20:50;;;;;;;17.70;12.20;;;;;;;-145.23;100.00;58621.06;5023292;28;20229;-53
2022/12/13 03:23:19;;;;;;;18.00;13.20;;;;;;;-145.23;100.00;58621.06;5031011;28;20380;-53
2022/12/13 03:25:48;;;;;;;19.70;13.20;;;;;;;-145.23;100.00;58621.06;5024872;28;20238;-54
2022/12/13 03:28:14;;;;;;;15.27;11.47;;;;;;;-145.23;100.00;58621.06;5023483;28;20418;-53
2022/12/13 03:30:41;;;;;;;19.47;12.33;;;;;;;-145.23;100.00;58621.06;5020359;28;20245;-54
2022/12/13 03:33:08;;;;;;;17.70;12.67;;;;;;;-145.23;100.00;58621.06;5022472;28;20281;-53
2022/12/13 03:35:37;;;;;;;16.37;11.43;;;;;;;-145.23;100.00;58621.06;5022666;28;20266;-53
2022/12/13 03:38:04;;;;;;;18.17;12.93;;;;;;;-145.23;100.00;58621.06;5031157;28;20244;-53
2022/12/13 03:40:32;;;;;;;16.73;11.93;;;;;;;-145.23;100.00;58621.06;5022891;28;20265;-54
2022/12/13 03:42:59;;;;;;;15.90;11.17;;;;;;;-145.23;100.00;58621.06;5017374;28;20243;-53
2022/12/13 03:45:26;;;;;;;15.70;12.00;;;;;;;-145.23;100.00;58621.06;5021718;28;20897;-53
2022/12/13 03:47:53;;;;;;;16.73;11.70;;;;;;;-145.23;100.00;58621.06;5026515;28;20231;-53
2022/12/13 03:50:20;;;;;;;17.17;12.07;;;;;;;-145.23;100.00;58621.06;5029336;28;20288;-54
2022/12/13 03:52:50;;;;;;;16.47;11.57;;;;;;;-145.23;100.00;58621.06;5027218;28;20238;-53
2022/12/13 03:55:20;;;;;;;14.63;10.83;;;;;;;-145.23;100.00;58621.06;5027468;28;20737;-54
2022/12/13 03:57:47;;;;;;;17.87;11.77;;;;;;;-145.23;100.00;58621.06;5026017;28;20239;-53
2022/12/13 04:00:14;;;;;;;16.57;11.63;;;;;;;-145.23;100.00;58621.06;5026681;28;20242;-54
2022/12/13 04:02:41;;;;;;;15.67;10.30;;;;;;;-145.23;100.00;58621.06;5025811;28;20624;-53
2022/12/13 04:05:09;;;;;;;16.63;11.70;;;;;;;-145.23;100.00;58621.06;5025657;28;20231;-53
2022/12/13 04:07:36;;;;;;;17.47;11.30;;;;;;;-145.23;100.00;58621.06;5027638;28;20246;-54
2022/12/13 04:10:05;;;;;;;15.47;10.47;;;;;;;-145.23;100.00;58621.06;5027151;28;20239;-54
2022/12/13 04:15:17;;;;;;;14.77;11.00;;;;;;;-145.23;100.00;58621.06;5026823;28;20238;-53
2022/12/13 04:17:44;;;;;;;15.50;10.97;;;;;;;-145.23;100.00;58621.06;5019514;28;20943;-53
2022/12/13 04:20:11;;;;;;;14.27;10.27;;;;;;;-145.23;100.00;58621.06;5004543;28;20316;-54
2022/12/13 04:22:38;;;;;;;17.13;12.23;;;;;;;-145.23;100.00;58621.06;5010246;28;20325;-54
2022/12/13 04:25:07;;;;;;;13.87;11.23;;;;;;;-145.23;100.00;58621.06;4995647;28;20905;-52
2022/12/13 04:27:36;;;;;;;19.40;11.93;;;;;;;-145.23;100.00;58621.06;5003237;28;20237;-52
2022/12/13 04:30:04;;;;;;;15.80;11.67;;;;;;;-145.23;100.00;58621.06;5007771;28;20229;-52
2022/12/13 04:32:31;;;;;;;15.83;11.70;;;;;;;-145.23;100.00;58621.06;5000958;28;20246;-53
2022/12/13 04:34:58;;;;;;;20.13;12.13;;;;;;;-145.23;100.00;58621.06;4997344;28;20232;-53
2022/12/13 04:37:25;;;;;;;19.17;12.30;;;;;;;-145.23;100.00;58621.06;5005297;28;20242;-53
2022/12/13 04:39:52;;;;;;;17.10;11.53;;;;;;;-145.23;100.00;58621.06;4998396;28;20737;-53
2022/12/13 04:42:20;;;;;;;15.23;10.93;;;;;;;-145.23;100.00;58621.06;5010008;28;20240;-54
2022/12/13 04:44:48;;;;;;;16.67;11.47;;;;;;;-145.23;100.00;58621.06;5006378;28;20246;-54
2022/12/13 04:47:15;;;;;;;15.63;10.47;;;;;;;-145.23;100.00;58621.06;5005645;28;20613;-53
2022/12/13 04:49:42;;;;;;;19.27;11.73;;;;;;;-145.23;100.00;58621.06;5006373;28;20236;-54
2022/12/13 04:52:10;;;;;;;12.73;9.67;;;;;;;-145.23;100.00;58621.06;5006517;28;20267;-53
2022/12/13 04:54:37;;;;;;;15.37;11.10;;;;;;;-145.23;100.00;58621.06;5006728;28;20236;-53
2022/12/13 04:57:07;;;;;;;15.53;9.43;;;;;;;-145.23;100.00;58621.06;5005086;28;20959;-54
2022/12/13 04:59:37;;;;;;;17.87;11.67;;;;;;;-145.23;100.00;58621.06;5005563;28;20232;-53
2022/12/13 05:02:04;;;;;;;16.13;11.30;;;;;;;-145.23;100.00;58621.06;5005311;28;20236;-53
2022/12/13 05:04:32;;;;;;;17.23;11.93;;;;;;;-145.23;100.00;58621.06;5005382;28;20318;-54
2022/12/13 05:06:58;;;;;;;17.40;11.47;;;;;;;-145.23;100.00;58621.06;5014019;28;20223;-54
2022/12/13 05:09:26;;;;;;;14.40;10.47;;;;;;;-145.23;100.00;58621.06;5006107;28;20298;-54
2022/12/13 05:11:53;;;;;;;17.27;12.13;;;;;;;-145.23;100.00;58621.06;4996970;28;20244;-54
2022/12/13 05:14:19;;;;;;;16.37;11.47;;;;;;;-145.23;100.00;58621.06;4999594;28;20231;-54
2022/12/13 05:16:48;;;;;;;14.40;10.57;;;;;;;-145.23;100.00;58621.06;5005831;28;20271;-54
2022/12/13 05:19:15;;;;;;;18.07;11.47;;;;;;;-145.23;100.00;58621.06;5018707;28;20229;-52
2022/12/13 05:21:42;;;;;;;14.57;9.60;;;;;;;-145.23;100.00;58621.06;5013969;28;20298;-53
2022/12/13 05:24:09;;;;;;;16.00;11.03;;;;;;;-145.23;100.00;58621.06;5001871;28;20279;-53
2022/12/13 05:26:36;;;;;;;17.73;12.27;;;;;;;-145.23;100.00;58621.06;4995739;28;20706;-54
2022/12/13 05:29:03;;;;;;;14.60;10.90;;;;;;;-145.23;100.00;58621.06;5002052;28;20230;-54
2022/12/13 05:31:30;;;;;;;16.73;12.17;;;;;;;-145.23;100.00;58621.06;5002907;28;20237;-56
2022/12/13 05:33:58;;;;;;;15.77;10.93;;;;;;;-145.23;100.00;58621.06;4994466;28;20283;-53
2022/12/13 05:36:25;;;;;;;16.30;11.43;;;;;;;-145.23;100.00;58621.06;5032567;28;20658;-53
2022/12/13 05:38:52;;;;;;;16.60;12.20;;;;;;;-145.23;100.00;58621.06;5024805;28;20239;-53
2022/12/13 05:41:22;;;;;;;16.83;11.60;;;;;;;-145.23;100.00;58621.06;5026840;28;20312;-53
2022/12/13 05:43:49;;;;;;;13.87;10.77;;;;;;;-145.23;100.00;58621.06;5024597;28;20239;-54
2022/12/13 05:46:15;;;;;;;13.43;10.03;;;;;;;-145.23;100.00;58621.06;5025506;28;20250;-53
2022/12/13 05:48:43;;;;;;;15.50;11.27;;;;;;;-145.23;100.00;58621.06;5025192;28;20227;-53
2022/12/13 05:51:11;;;;;;;15.23;10.57;;;;;;;-145.23;100.00;58621.06;5022653;28;20499;-54
2022/12/13 05:53:39;;;;;;;13.83;10.53;;;;;;;-145.23;100.00;58621.06;5023858;28;20235;-54
2022/12/13 05:56:07;;;;;;;15.87;11.17;;;;;;;-145.23;100.00;58621.06;5023597;28;20238;-54
2022/12/13 05:58:35;;;;;;;21.67;12.00;;;;;;;-145.23;100.00;58621.06;5022509;28;20234;-54
2022/12/13 06:01:06;;;;;;;16.90;11.27;;;;;;;-145.23;100.00;58621.06;5029312;28;20235;-54
2022/12/13 06:03:33;;;;;;;19.47;12.30;;;;;;;-145.23;100.00;58621.06;5024640;28;20247;-53
2022/12/13 06:06:01;;;;;;;15.10;10.73;;;;;;;-145.23;100.00;58621.06;5038892;28;20246;-54
2022/12/13 06:08:30;;;;;;;14.80;11.47;;;;;;;-145.23;100.00;58621.06;5024300;28;20227;-53
2022/12/13 06:10:58;;;;;;;18.17;10.53;;;;;;;-145.23;100.00;58621.06;5025079;28;20700;-53
2022/12/13 06:13:26;;;;;;;17.03;11.70;;;;;;;-145.23;100.00;58621.06;5024403;28;20328;-53
2022/12/13 06:15:53;;;;;;;19.23;12.07;;;;;;;-145.23;100.00;58621.06;5025786;28;20235;-55
2022/12/13 06:18:20;;;;;;;16.57;11.67;;;;;;;-145.23;100.00;58621.06;5032770;28;20246;-54
2022/12/13 06:20:57;;;;;;;15.47;11.83;;;;;;;-145.23;100.00;58621.06;5028772;28;20781;-54
2022/12/13 06:23:24;;;;;;;16.50;10.80;;;;;;;-145.23;100.00;58621.06;5022493;28;20611;-54
2022/12/13 06:25:53;;;;;;;17.13;11.17;;;;;;;-145.23;100.00;58621.06;5024634;28;20632;-53
2022/12/13 06:28:21;;;;;;;17.90;12.77;;;;;;;-145.23;100.00;58621.06;5024303;28;20359;-53
2022/12/13 06:30:51;;;;;;;22.03;13.60;;;;;;;-145.23;100.00;58621.06;5022472;28;20228;-54
2022/12/13 06:33:18;;;;;;;17.27;12.80;;;;;;;-145.23;100.00;58621.06;5024019;28;20239;-53
2022/12/13 06:35:45;;;;;;;18.43;13.80;;;;;;;-145.23;100.00;58621.06;5023143;28;20233;-54
2022/12/13 06:38:13;;;;;;;21.00;12.90;;;;;;;-145.23;100.00;58621.06;5025504;28;20260;-53
2022/12/13 06:40:40;;;;;;;19.53;13.13;;;;;;;-145.23;100.00;58621.06;5021901;28;20258;-53
2022/12/13 06:43:09;;;;;;;19.80;12.83;;;;;;;-145.23;100.00;58621.06;5024221;28;20262;-54
2022/12/13 06:45:39;;;;;;;18.03;12.40;;;;;;;-145.23;100.00;58621.06;5023190;28;20910;-54
2022/12/13 06:48:06;;;;;;;16.90;12.40;;;;;;;-145.23;100.00;58621.06;5026304;28;20227;-53
2022/12/13 06:50:33;;;;;;;18.17;13.37;;;;;;;-145.23;100.00;58621.06;5021143;28;20259;-53
2022/12/13 06:53:00;;;;;;;17.20;13.47;;;;;;;-145.23;100.00;58621.06;5024400;28;20271;-55
2022/12/13 06:55:27;;;;;;;19.73;13.93;;;;;;;-145.23;100.00;58621.06;5023848;28;20500;-53
2022/12/13 06:57:54;;;;;;;22.70;14.90;;;;;;;-145.23;100.00;58621.06;5034868;28;20226;-53
2022/12/13 07:00:22;;;;;;;21.63;14.37;;;;;;;-145.23;100.00;58621.06;5033590;28;20253;-53
2022/12/13 07:02:52;;;;;;;22.17;14.03;;;;;;;-145.23;100.00;58621.06;5030098;28;20353;-54
2022/12/13 07:05:19;;;;;;;22.03;14.53;;;;;;;-145.23;100.00;58621.06;5035718;28;20307;-54
2022/12/13 07:07:46;;;;;;;23.63;15.67;;;;;;;-145.23;100.00;58621.06;5020579;28;20246;-53
2022/12/13 07:10:13;;;;;;;22.97;14.47;;;;;;;-145.23;100.00;58621.06;5023381;28;20242;-53
2022/12/13 07:12:40;;;;;;;22.83;15.40;;;;;;;-145.23;100.00;58621.06;5024091;28;20237;-53
2022/12/13 07:15:09;;;;;;;24.17;16.17;;;;;;;-145.23;100.00;58621.06;5013626;28;20227;-54
2022/12/13 07:17:37;;;;;;;19.93;14.53;;;;;;;-145.23;100.00;58621.06;5001546;28;20598;-55
2022/12/13 07:20:08;;;;;;;22.17;14.80;;;;;;;-145.23;100.00;58621.06;5006564;28;20259;-53
2022/12/13 07:22:35;;;;;;;23.97;16.23;;;;;;;-145.23;100.00;58621.06;5024439;28;20227;-53
2022/12/13 07:25:02;;;;;;;20.93;15.97;;;;;;;-145.23;100.00;58621.06;5023282;28;20255;-54
2022/12/13 07:27:29;;;;;;;26.13;15.70;;;;;;;-145.23;100.00;58621.06;5024723;28;20239;-53
2022/12/13 07:29:56;;;;;;;19.80;15.23;;;;;;;-145.23;100.00;58621.06;5010042;28;20246;-55
2022/12/13 07:32:23;;;;;;;21.37;15.77;;;;;;;-145.23;100.00;58621.06;5018211;28;20330;-54
2022/12/13 07:34:51;;;;;;;25.53;15.87;;;;;;;-145.23;100.00;58621.06;5014593;28;20323;-53
2022/12/13 07:37:18;;;;;;;23.53;15.77;;;;;;;-145.23;100.00;58621.06;5021039;28;20701;-53
2022/12/13 07:39:45;;;;;;;28.17;16.17;;;;;;;-145.23;100.00;58621.06;5015739;28;20242;-53
2022/12/13 07:42:12;;;;;;;24.87;15.70;;;;;;;-145.23;100.00;58621.06;5005395;28;20721;-54
2022/12/13 07:44:39;;;;;;;24.33;15.93;;;;;;;-145.23;100.00;58621.06;5007153;28;20233;-53
2022/12/13 07:47:06;;;;;;;26.27;15.63;;;;;;;-145.23;100.00;58621.06;5008188;28;20257;-53
2022/12/13 07:49:33;;;;;;;22.43;15.67;;;;;;;-145.23;100.00;58621.06;5007449;28;20307;-53
2022/12/13 07:52:01;;;;;;;19.37;15.37;;;;;;;-145.23;100.00;58621.06;5009786;28;20255;-54
2022/12/13 07:54:28;;;;;;;24.83;15.87;;;;;;;-145.23;100.00;58621.06;5010362;28;20239;-52
2022/12/13 07:56:55;;;;;;;23.37;16.97;;;;;;;-145.23;100.00;58621.06;5019621;28;20263;-53
2022/12/13 07:59:22;;;;;;;27.10;16.50;;;;;;;-145.23;100.00;58621.06;5028032;28;20823;-54
2022/12/13 08:01:49;;;;;;;22.40;16.13;;;;;;;-145.23;100.00;58621.06;5018512;28;20262;-53
2022/12/13 08:04:16;;;;;;;22.80;16.30;;;;;;;-145.23;100.00;58621.06;5019683;28;20235;-53
2022/12/13 08:06:42;;;;;;;22.53;15.83;;;;;;;-145.23;100.00;58621.06;5022370;28;20255;-53
2022/12/13 08:09:11;;;;;;;26.23;16.63;;;;;;;-145.23;100.00;58621.06;5021631;28;20573;-54
2022/12/13 08:11:38;;;;;;;22.70;16.03;;;;;;;-145.23;100.00;58621.06;5027499;28;20231;-53
2022/12/13 08:14:06;;;;;;;22.93;16.60;;;;;;;-145.23;100.00;58621.06;5022799;28;20313;-53
2022/12/13 08:16:33;;;;;;;25.43;16.50;;;;;;;-145.23;100.00;58621.06;5016685;28;20942;-54
2022/12/13 08:19:00;;;;;;;24.83;14.90;;;;;;;-145.23;100.00;58621.06;5019769;28;20230;-58
2022/12/13 08:21:27;;;;;;;24.43;17.00;;;;;;;-145.23;100.00;58621.06;5022327;28;20775;-53
2022/12/13 08:23:54;;;;;;;25.33;15.60;;;;;;;-145.23;100.00;58621.06;5028435;28;20263;-53
2022/12/13 08:26:23;;;;;;;25.67;16.10;;;;;;;-145.23;100.00;58621.06;5025585;28;20236;-53
2022/12/13 08:28:50;;;;;;;22.23;14.63;;;;;;;-145.23;100.00;58621.06;5025223;28;20322;-53
2022/12/13 08:31:17;;;;;;;25.37;15.90;;;;;;;-145.23;100.00;58621.06;5024097;28;20229;-53
2022/12/13 08:33:45;;;;;;;22.23;15.83;;;;;;;-145.23;100.00;58621.06;5024631;28;20242;-54
2022/12/13 08:36:15;;;;;;;22.77;16.13;;;;;;;-145.23;100.00;58621.06;5023036;28;20317;-54
2022/12/13 08:38:42;;;;;;;20.60;14.80;;;;;;;-145.23;100.00;58621.06;5024747;28;20235;-53
2022/12/13 08:41:09;;;;;;;24.53;17.30;;;;;;;-145.23;100.00;58621.06;5026415;28;20229;-54
2022/12/13 08:43:38;;;;;;;23.70;15.57;;;;;;;-145.23;100.00;58621.06;5025469;28;20243;-54
2022/12/13 08:46:06;;;;;;;19.80;14.47;;;;;;;-145.23;100.00;58621.06;5025462;28;20709;-54
2022/12/13 08:48:33;;;;;;;21.20;16.27;;;;;;;-145.23;100.00;58621.06;5024437;28;20235;-53
2022/12/13 08:51:01;;;;;;;23.17;16.87;;;;;;;-145.23;100.00;58621.06;5031311;28;20235;-53
2022/12/13 08:53:28;;;;;;;23.37;16.47;;;;;;;-145.23;100.00;58621.06;5003334;28;20753;-54
2022/12/13 08:56:00;;;;;;;23.83;16.60;;;;;;;-145.23;100.00;58621.06;4998328;28;20224;-53
2022/12/13 08:58:27;;;;;;;23.20;16.00;;;;;;;-145.23;100.00;58621.06;5011409;28;20705;-54
2022/12/13 09:00:58;;;;;;;21.83;15.67;;;;;;;-145.23;100.00;58621.06;5009391;28;20227;-52
2022/12/13 09:03:25;;;;;;;21.57;15.00;;;;;;;-145.23;100.00;58621.06;5004929;28;20239;-53
2022/12/13 09:05:52;;;;;;;22.10;15.43;;;;;;;-145.23;100.00;58621.06;5034661;28;20234;-53
2022/12/13 09:08:19;;;;;;;22.27;14.53;;;;;;;-145.23;100.00;58621.06;5029880;28;20337;-53
2022/12/13 09:10:46;;;;;;;23.90;15.70;;;;;;;-145.23;100.00;58621.06;5027065;28;20235;-53
2022/12/13 09:13:13;;;;;;;21.73;15.77;;;;;;;-145.23;100.00;58621.06;5037298;28;20235;-53
2022/12/13 09:15:40;;;;;;;22.43;16.33;;;;;;;-145.23;100.00;58621.06;5026512;28;20235;-54
2022/12/13 09:18:09;;;;;;;20.43;14.57;;;;;;;-145.23;100.00;58621.06;5025977;28;20242;-53
2022/12/13 09:20:39;;;;;;;20.97;15.23;;;;;;;-145.23;100.00;58621.06;5024720;28;20243;-52
2022/12/13 09:23:06;;;;;;;25.00;15.60;;;;;;;-145.23;100.00;58621.06;5019776;28;20229;-53
2022/12/13 09:25:33;;;;;;;21.33;15.17;;;;;;;-145.23;100.00;58621.06;5021259;28;20317;-55
2022/12/13 09:28:01;;;;;;;25.27;15.33;;;;;;;-145.23;100.00;58621.06;5024296;28;20288;-53
2022/12/13 09:30:28;;;;;;;21.60;14.93;;;;;;;-145.23;100.00;58621.06;5001639;28;20263;-53
2022/12/13 09:32:56;;;;;;;20.03;14.93;;;;;;;-145.23;100.00;58621.06;5002368;28;20238;-53
2022/12/13 09:35:24;;;;;;;19.37;15.03;;;;;;;-145.23;100.00;58621.06;5000881;28;20244;-53
2022/12/13 09:37:51;;;;;;;21.93;14.40;;;;;;;-145.23;100.00;58621.06;5002968;28;20242;-53
2022/12/13 09:40:21;;;;;;;24.13;16.60;;;;;;;-145.23;100.00;58621.06;5000592;28;20244;-54
2022/12/13 09:42:50;;;;;;;20.80;15.07;;;;;;;-145.23;100.00;58621.06;5002079;28;20726;-53
2022/12/13 09:45:17;;;;;;;22.37;16.27;;;;;;;-145.23;100.00;58621.06;5000359;28;20245;-54
2022/12/13 09:47:45;;;;;;;24.07;15.63;;;;;;;-145.23;100.00;58621.06;5003514;28;20228;-53
2022/12/13 09:50:14;;;;;;;21.57;15.77;;;;;;;-145.23;100.00;58621.06;5005029;28;20751;-53
2022/12/13 09:52:44;;;;;;;23.57;14.90;;;;;;;-145.23;100.00;58621.06;5001337;28;20371;-53
2022/12/13 09:55:20;;;;;;;23.40;15.83;;;;;;;-145.23;100.00;58621.06;5001762;28;20253;-54
2022/12/13 09:57:47;;;;;;;21.53;14.90;;;;;;;-145.23;100.00;58621.06;4996658;28;20232;-53
2022/12/13 10:00:16;;;;;;;23.83;15.93;;;;;;;-145.23;100.00;58621.06;4999017;28;20238;-55
2022/12/13 10:02:45;;;;;;;24.53;15.47;;;;;;;-145.23;100.00;58621.06;5004160;28;20351;-53
2022/12/13 10:05:23;;;;;;;19.50;14.33;;;;;;;-145.23;100.00;58621.06;4999180;28;20237;-53
2022/12/13 10:07:54;;;;;;;21.83;14.87;;;;;;;-145.23;100.00;58621.06;4996607;28;20603;-53
2022/12/13 10:10:21;;;;;;;23.73;16.00;;;;;;;-145.23;100.00;58621.06;5016069;28;20255;-54
2022/12/13 10:12:54;;;;;;;23.80;15.03;;;;;;;-145.23;100.00;58621.06;5028980;28;20232;-54
2022/12/13 10:15:22;;;;;;;20.53;14.93;;;;;;;-145.23;100.00;58621.06;5034386;28;20369;-52
2022/12/13 10:17:49;;;;;;;24.97;17.67;;;;;;;-145.23;100.00;58621.06;5027263;28;20237;-55
2022/12/13 10:20:18;;;;;;;20.33;13.97;;;;;;;-145.23;100.00;58621.06;5026748;28;20560;-53
2022/12/13 10:22:45;;;;;;;21.10;14.50;;;;;;;-145.23;100.00;58621.06;5023956;28;20305;-53
2022/12/13 10:25:15;;;;;;;23.63;15.00;;;;;;;-145.23;100.00;58621.06;5021903;28;20708;-54
2022/12/13 10:27:43;;;;;;;19.07;13.67;;;;;;;-145.23;100.00;58621.06;5024624;28;20227;-53
2022/12/13 10:30:13;;;;;;;20.17;12.27;;;;;;;-145.23;100.00;58621.06;5023319;28;20224;-55
2022/12/13 10:32:46;;;;;;;21.13;14.83;;;;;;;-145.23;100.00;58621.06;5023940;28;20258;-53
2022/12/13 10:35:21;;;;;;;18.87;13.50;;;;;;;-145.23;100.00;58621.06;5018389;28;20325;-54
2022/12/13 10:37:48;;;;;;;20.53;14.03;;;;;;;-145.23;100.00;58621.06;5009775;28;20314;-53
2022/12/13 10:40:30;;;;;;;18.37;13.37;;;;;;;-145.23;100.00;58621.06;5005392;28;20315;-54
2022/12/13 10:43:11;;;;;;;18.70;13.23;;;;;;;-145.23;100.00;58621.06;5003227;28;20244;-54
2022/12/13 10:45:38;;;;;;;17.53;12.17;;;;;;;-145.23;100.00;58621.06;5007534;28;20317;-53
2022/12/13 10:48:06;;;;;;;17.97;12.97;;;;;;;-145.23;100.00;58621.06;5006261;28;20278;-55
2022/12/13 10:50:32;;;;;;;20.10;12.07;;;;;;;-145.23;100.00;58621.06;4997631;28;20232;-54
2022/12/13 10:53:00;;;;;;;18.47;12.13;;;;;;;-145.23;100.00;58621.06;5007622;28;20694;-54
2022/12/13 10:55:29;;;;;;;19.07;12.10;;;;;;;-145.23;100.00;58621.06;5003273;28;20240;-54
2022/12/13 10:58:00;;;;;;;15.30;12.83;;;;;;;-145.23;100.00;58621.06;5009521;28;20760;-53
2022/12/13 11:00:34;;;;;;;15.43;11.20;;;;;;;-145.23;100.00;58621.06;5018434;28;20235;-53
2022/12/13 11:03:01;;;;;;;18.13;11.60;;;;;;;-145.23;100.00;58621.06;5023000;28;20301;-56
2022/12/13 11:05:31;;;;;;;21.00;11.27;;;;;;;-145.23;100.00;58621.06;5033015;28;20310;-53
2022/12/13 11:08:12;;;;;;;12.97;10.27;;;;;;;-145.23;100.00;58621.06;5037308;28;20234;-54